<?xml version="1.0" encoding="utf-8"?>
<gpx xmlns:xsi="http://www.w3.org/2001/XMLSchema-instance" xmlns:xsd="http://www.w3.org/2001/XMLSchema" version="1.1" creator="Shapelink.com" xmlns="http://www.topografix.com/GPX/1/1" xmlns:gpxtpx="http://www.garmin.com/xmlschemas/TrackPointExtension/v1">
  <metadata>
    <name>Längdskidåkning - Skate 5.79 km, 2011-02-19</name>
    <desc></desc>
    <author><name>Alexander Engvall</name></author> 
    <time>2011-02-19T15:25:11Z</time>
  </metadata>
  <trk>
    <name>Längdskidåkning - Skate 5.79 km, 2011-02-19</name>
    <trkseg>
      <trkpt lat="59.524919" lon="17.8765732">
        <ele>32.8223</ele>
        <time>2011-02-19T15:25:11Z</time>
      </trkpt>
      <trkpt lat="59.5249274" lon="17.8766207">
        <ele>33.3029</ele>
        <time>2011-02-19T15:25:15Z</time>
      </trkpt>
      <trkpt lat="59.5249977" lon="17.8767809">
        <ele>33.3029</ele>
        <time>2011-02-19T15:25:19Z</time>
      </trkpt>
      <trkpt lat="59.5251306" lon="17.8770195">
        <ele>32.8223</ele>
        <time>2011-02-19T15:25:24Z</time>
      </trkpt>
      <trkpt lat="59.5252553" lon="17.8772003">
        <ele>32.3416</ele>
        <time>2011-02-19T15:25:28Z</time>
      </trkpt>
      <trkpt lat="59.5253731" lon="17.8773341">
        <ele>30.8995</ele>
        <time>2011-02-19T15:25:32Z</time>
      </trkpt>
      <trkpt lat="59.5255181" lon="17.8774983">
        <ele>31.8607</ele>
        <time>2011-02-19T15:25:36Z</time>
      </trkpt>
      <trkpt lat="59.5256292" lon="17.8776382">
        <ele>32.3416</ele>
        <time>2011-02-19T15:25:39Z</time>
      </trkpt>
      <trkpt lat="59.5257648" lon="17.8778193">
        <ele>32.8223</ele>
        <time>2011-02-19T15:25:43Z</time>
      </trkpt>
      <trkpt lat="59.525875" lon="17.8778853">
        <ele>31.8607</ele>
        <time>2011-02-19T15:25:46Z</time>
      </trkpt>
      <trkpt lat="59.5259732" lon="17.8778918">
        <ele>32.3416</ele>
        <time>2011-02-19T15:25:48Z</time>
      </trkpt>
      <trkpt lat="59.5261818" lon="17.8778733">
        <ele>33.3029</ele>
        <time>2011-02-19T15:25:52Z</time>
      </trkpt>
      <trkpt lat="59.5263787" lon="17.8778741">
        <ele>31.3801</ele>
        <time>2011-02-19T15:25:56Z</time>
      </trkpt>
      <trkpt lat="59.5265144" lon="17.8776913">
        <ele>28.0155</ele>
        <time>2011-02-19T15:26:00Z</time>
      </trkpt>
      <trkpt lat="59.5265559" lon="17.8774009">
        <ele>28.4962</ele>
        <time>2011-02-19T15:26:03Z</time>
      </trkpt>
      <trkpt lat="59.5264871" lon="17.8772408">
        <ele>27.5349</ele>
        <time>2011-02-19T15:26:06Z</time>
      </trkpt>
      <trkpt lat="59.5263653" lon="17.8773185">
        <ele>28.0155</ele>
        <time>2011-02-19T15:26:09Z</time>
      </trkpt>
      <trkpt lat="59.5263337" lon="17.8773636">
        <ele>28.0155</ele>
        <time>2011-02-19T15:26:10Z</time>
      </trkpt>
      <trkpt lat="59.5262493" lon="17.8774806">
        <ele>28.0155</ele>
        <time>2011-02-19T15:26:13Z</time>
      </trkpt>
      <trkpt lat="59.526125" lon="17.8776288">
        <ele>28.0155</ele>
        <time>2011-02-19T15:26:18Z</time>
      </trkpt>
      <trkpt lat="59.5260255" lon="17.8777097">
        <ele>28.4962</ele>
        <time>2011-02-19T15:26:22Z</time>
      </trkpt>
      <trkpt lat="59.5259072" lon="17.8777547">
        <ele>28.9769</ele>
        <time>2011-02-19T15:26:26Z</time>
      </trkpt>
      <trkpt lat="59.5258063" lon="17.8777545">
        <ele>28.9769</ele>
        <time>2011-02-19T15:26:31Z</time>
      </trkpt>
      <trkpt lat="59.525798" lon="17.8777541">
        <ele>29.4575</ele>
        <time>2011-02-19T15:26:34Z</time>
      </trkpt>
      <trkpt lat="59.5256741" lon="17.8776498">
        <ele>30.4188</ele>
        <time>2011-02-19T15:26:40Z</time>
      </trkpt>
      <trkpt lat="59.525586" lon="17.8775412">
        <ele>30.4188</ele>
        <time>2011-02-19T15:26:44Z</time>
      </trkpt>
      <trkpt lat="59.5255178" lon="17.8773919">
        <ele>30.8995</ele>
        <time>2011-02-19T15:26:48Z</time>
      </trkpt>
      <trkpt lat="59.5254778" lon="17.877204">
        <ele>30.8995</ele>
        <time>2011-02-19T15:26:52Z</time>
      </trkpt>
      <trkpt lat="59.5255147" lon="17.8769669">
        <ele>31.8607</ele>
        <time>2011-02-19T15:26:56Z</time>
      </trkpt>
      <trkpt lat="59.5256338" lon="17.8768315">
        <ele>30.4188</ele>
        <time>2011-02-19T15:27:00Z</time>
      </trkpt>
      <trkpt lat="59.525787" lon="17.8769356">
        <ele>28.4962</ele>
        <time>2011-02-19T15:27:05Z</time>
      </trkpt>
      <trkpt lat="59.5258874" lon="17.8771126">
        <ele>27.0543</ele>
        <time>2011-02-19T15:27:09Z</time>
      </trkpt>
      <trkpt lat="59.5259569" lon="17.8772278">
        <ele>26.5736</ele>
        <time>2011-02-19T15:27:12Z</time>
      </trkpt>
      <trkpt lat="59.5260627" lon="17.8771667">
        <ele>25.6123</ele>
        <time>2011-02-19T15:27:16Z</time>
      </trkpt>
      <trkpt lat="59.5260441" lon="17.8769906">
        <ele>25.1317</ele>
        <time>2011-02-19T15:27:19Z</time>
      </trkpt>
      <trkpt lat="59.5259161" lon="17.8768573">
        <ele>25.1317</ele>
        <time>2011-02-19T15:27:24Z</time>
      </trkpt>
      <trkpt lat="59.5258064" lon="17.8768057">
        <ele>25.6123</ele>
        <time>2011-02-19T15:27:28Z</time>
      </trkpt>
      <trkpt lat="59.5256691" lon="17.8767495">
        <ele>27.5349</ele>
        <time>2011-02-19T15:27:33Z</time>
      </trkpt>
      <trkpt lat="59.5255516" lon="17.8767332">
        <ele>28.4962</ele>
        <time>2011-02-19T15:27:38Z</time>
      </trkpt>
      <trkpt lat="59.5254447" lon="17.8766741">
        <ele>30.4188</ele>
        <time>2011-02-19T15:27:42Z</time>
      </trkpt>
      <trkpt lat="59.5253732" lon="17.8765513">
        <ele>31.3801</ele>
        <time>2011-02-19T15:27:46Z</time>
      </trkpt>
      <trkpt lat="59.5253422" lon="17.876453">
        <ele>31.8607</ele>
        <time>2011-02-19T15:27:49Z</time>
      </trkpt>
      <trkpt lat="59.5253375" lon="17.8764229">
        <ele>31.8607</ele>
        <time>2011-02-19T15:27:50Z</time>
      </trkpt>
      <trkpt lat="59.5253389" lon="17.8763038">
        <ele>31.8607</ele>
        <time>2011-02-19T15:28:17Z</time>
      </trkpt>
      <trkpt lat="59.5253907" lon="17.8761127">
        <ele>31.8607</ele>
        <time>2011-02-19T15:28:21Z</time>
      </trkpt>
      <trkpt lat="59.5254396" lon="17.8760257">
        <ele>31.8607</ele>
        <time>2011-02-19T15:28:23Z</time>
      </trkpt>
      <trkpt lat="59.5256272" lon="17.8759162">
        <ele>30.8995</ele>
        <time>2011-02-19T15:28:28Z</time>
      </trkpt>
      <trkpt lat="59.5257864" lon="17.8760248">
        <ele>29.4575</ele>
        <time>2011-02-19T15:28:32Z</time>
      </trkpt>
      <trkpt lat="59.525811" lon="17.8760691">
        <ele>28.4962</ele>
        <time>2011-02-19T15:28:33Z</time>
      </trkpt>
      <trkpt lat="59.5259447" lon="17.8763637">
        <ele>26.0929</ele>
        <time>2011-02-19T15:28:38Z</time>
      </trkpt>
      <trkpt lat="59.525971" lon="17.8764187">
        <ele>25.6123</ele>
        <time>2011-02-19T15:28:39Z</time>
      </trkpt>
      <trkpt lat="59.5261071" lon="17.8766263">
        <ele>24.651</ele>
        <time>2011-02-19T15:28:43Z</time>
      </trkpt>
      <trkpt lat="59.5262913" lon="17.8766751">
        <ele>24.1703</ele>
        <time>2011-02-19T15:28:48Z</time>
      </trkpt>
      <trkpt lat="59.5263496" lon="17.8764911">
        <ele>24.651</ele>
        <time>2011-02-19T15:28:51Z</time>
      </trkpt>
      <trkpt lat="59.5263229" lon="17.8762297">
        <ele>24.1703</ele>
        <time>2011-02-19T15:28:55Z</time>
      </trkpt>
      <trkpt lat="59.5262461" lon="17.8760116">
        <ele>24.1703</ele>
        <time>2011-02-19T15:28:59Z</time>
      </trkpt>
      <trkpt lat="59.5261964" lon="17.8757085">
        <ele>25.1317</ele>
        <time>2011-02-19T15:29:03Z</time>
      </trkpt>
      <trkpt lat="59.5262435" lon="17.875505">
        <ele>25.1317</ele>
        <time>2011-02-19T15:29:06Z</time>
      </trkpt>
      <trkpt lat="59.5263646" lon="17.8753853">
        <ele>25.1317</ele>
        <time>2011-02-19T15:29:10Z</time>
      </trkpt>
      <trkpt lat="59.5264713" lon="17.8753894">
        <ele>25.1317</ele>
        <time>2011-02-19T15:29:13Z</time>
      </trkpt>
      <trkpt lat="59.5266651" lon="17.8754532">
        <ele>23.6896</ele>
        <time>2011-02-19T15:29:19Z</time>
      </trkpt>
      <trkpt lat="59.5268423" lon="17.8755027">
        <ele>22.7283</ele>
        <time>2011-02-19T15:29:24Z</time>
      </trkpt>
      <trkpt lat="59.526929" lon="17.8755457">
        <ele>22.7283</ele>
        <time>2011-02-19T15:29:27Z</time>
      </trkpt>
      <trkpt lat="59.5270356" lon="17.8756416">
        <ele>22.7283</ele>
        <time>2011-02-19T15:29:31Z</time>
      </trkpt>
      <trkpt lat="59.5270589" lon="17.8756758">
        <ele>22.7283</ele>
        <time>2011-02-19T15:29:32Z</time>
      </trkpt>
      <trkpt lat="59.5270923" lon="17.875849">
        <ele>22.2476</ele>
        <time>2011-02-19T15:29:36Z</time>
      </trkpt>
      <trkpt lat="59.5270717" lon="17.876022">
        <ele>22.7283</ele>
        <time>2011-02-19T15:29:40Z</time>
      </trkpt>
      <trkpt lat="59.5270817" lon="17.8762105">
        <ele>23.6896</ele>
        <time>2011-02-19T15:29:44Z</time>
      </trkpt>
      <trkpt lat="59.5271158" lon="17.8763017">
        <ele>23.6896</ele>
        <time>2011-02-19T15:29:46Z</time>
      </trkpt>
      <trkpt lat="59.5272591" lon="17.8764908">
        <ele>24.651</ele>
        <time>2011-02-19T15:29:51Z</time>
      </trkpt>
      <trkpt lat="59.5273867" lon="17.8766213">
        <ele>24.1703</ele>
        <time>2011-02-19T15:29:55Z</time>
      </trkpt>
      <trkpt lat="59.52745" lon="17.8766502">
        <ele>24.1703</ele>
        <time>2011-02-19T15:29:57Z</time>
      </trkpt>
      <trkpt lat="59.5275701" lon="17.8765213">
        <ele>23.209</ele>
        <time>2011-02-19T15:30:01Z</time>
      </trkpt>
      <trkpt lat="59.5276847" lon="17.8763581">
        <ele>23.209</ele>
        <time>2011-02-19T15:30:05Z</time>
      </trkpt>
      <trkpt lat="59.5277953" lon="17.8762046">
        <ele>23.6896</ele>
        <time>2011-02-19T15:30:09Z</time>
      </trkpt>
      <trkpt lat="59.5279018" lon="17.8760603">
        <ele>23.209</ele>
        <time>2011-02-19T15:30:13Z</time>
      </trkpt>
      <trkpt lat="59.52793" lon="17.8760255">
        <ele>22.7283</ele>
        <time>2011-02-19T15:30:14Z</time>
      </trkpt>
      <trkpt lat="59.528053" lon="17.8758536">
        <ele>23.6896</ele>
        <time>2011-02-19T15:30:19Z</time>
      </trkpt>
      <trkpt lat="59.528153" lon="17.8757344">
        <ele>23.6896</ele>
        <time>2011-02-19T15:30:23Z</time>
      </trkpt>
      <trkpt lat="59.5282584" lon="17.8756853">
        <ele>22.7283</ele>
        <time>2011-02-19T15:30:27Z</time>
      </trkpt>
      <trkpt lat="59.5283073" lon="17.8757177">
        <ele>22.7283</ele>
        <time>2011-02-19T15:30:29Z</time>
      </trkpt>
      <trkpt lat="59.5283332" lon="17.8759308">
        <ele>22.7283</ele>
        <time>2011-02-19T15:30:34Z</time>
      </trkpt>
      <trkpt lat="59.5282644" lon="17.8760332">
        <ele>22.7283</ele>
        <time>2011-02-19T15:30:38Z</time>
      </trkpt>
      <trkpt lat="59.5282059" lon="17.8760818">
        <ele>22.2476</ele>
        <time>2011-02-19T15:30:41Z</time>
      </trkpt>
      <trkpt lat="59.5281164" lon="17.8761845">
        <ele>22.2476</ele>
        <time>2011-02-19T15:30:46Z</time>
      </trkpt>
      <trkpt lat="59.5280449" lon="17.8762733">
        <ele>21.767</ele>
        <time>2011-02-19T15:30:50Z</time>
      </trkpt>
      <trkpt lat="59.5279628" lon="17.8763933">
        <ele>21.767</ele>
        <time>2011-02-19T15:30:54Z</time>
      </trkpt>
      <trkpt lat="59.5278582" lon="17.8765301">
        <ele>21.2864</ele>
        <time>2011-02-19T15:30:58Z</time>
      </trkpt>
      <trkpt lat="59.5277675" lon="17.8766424">
        <ele>22.7283</ele>
        <time>2011-02-19T15:31:02Z</time>
      </trkpt>
      <trkpt lat="59.5276939" lon="17.8767589">
        <ele>23.209</ele>
        <time>2011-02-19T15:31:06Z</time>
      </trkpt>
      <trkpt lat="59.5276737" lon="17.8767962">
        <ele>23.6896</ele>
        <time>2011-02-19T15:31:07Z</time>
      </trkpt>
      <trkpt lat="59.5276715" lon="17.8769771">
        <ele>23.6896</ele>
        <time>2011-02-19T15:31:12Z</time>
      </trkpt>
      <trkpt lat="59.5277016" lon="17.8770771">
        <ele>23.6896</ele>
        <time>2011-02-19T15:31:15Z</time>
      </trkpt>
      <trkpt lat="59.5277908" lon="17.8771275">
        <ele>23.6896</ele>
        <time>2011-02-19T15:31:19Z</time>
      </trkpt>
      <trkpt lat="59.5279343" lon="17.877015">
        <ele>23.6896</ele>
        <time>2011-02-19T15:31:24Z</time>
      </trkpt>
      <trkpt lat="59.5280132" lon="17.8769355">
        <ele>23.6896</ele>
        <time>2011-02-19T15:31:27Z</time>
      </trkpt>
      <trkpt lat="59.5281302" lon="17.876819">
        <ele>24.1703</ele>
        <time>2011-02-19T15:31:31Z</time>
      </trkpt>
      <trkpt lat="59.5282913" lon="17.8767405">
        <ele>23.6896</ele>
        <time>2011-02-19T15:31:36Z</time>
      </trkpt>
      <trkpt lat="59.5284425" lon="17.8766767">
        <ele>23.209</ele>
        <time>2011-02-19T15:31:42Z</time>
      </trkpt>
      <trkpt lat="59.528532" lon="17.8766167">
        <ele>22.2476</ele>
        <time>2011-02-19T15:31:46Z</time>
      </trkpt>
      <trkpt lat="59.5286655" lon="17.8765741">
        <ele>23.209</ele>
        <time>2011-02-19T15:31:50Z</time>
      </trkpt>
      <trkpt lat="59.5288355" lon="17.8765353">
        <ele>23.6896</ele>
        <time>2011-02-19T15:31:55Z</time>
      </trkpt>
      <trkpt lat="59.5289357" lon="17.8765045">
        <ele>24.1703</ele>
        <time>2011-02-19T15:31:58Z</time>
      </trkpt>
      <trkpt lat="59.5291128" lon="17.8764216">
        <ele>24.651</ele>
        <time>2011-02-19T15:32:03Z</time>
      </trkpt>
      <trkpt lat="59.5292392" lon="17.8763681">
        <ele>24.1703</ele>
        <time>2011-02-19T15:32:07Z</time>
      </trkpt>
      <trkpt lat="59.5293724" lon="17.8763172">
        <ele>23.6896</ele>
        <time>2011-02-19T15:32:11Z</time>
      </trkpt>
      <trkpt lat="59.5295413" lon="17.8763142">
        <ele>23.209</ele>
        <time>2011-02-19T15:32:16Z</time>
      </trkpt>
      <trkpt lat="59.5296728" lon="17.8763528">
        <ele>22.7283</ele>
        <time>2011-02-19T15:32:20Z</time>
      </trkpt>
      <trkpt lat="59.5297963" lon="17.8763954">
        <ele>22.7283</ele>
        <time>2011-02-19T15:32:24Z</time>
      </trkpt>
      <trkpt lat="59.5299341" lon="17.8764447">
        <ele>21.767</ele>
        <time>2011-02-19T15:32:29Z</time>
      </trkpt>
      <trkpt lat="59.5300695" lon="17.8764931">
        <ele>21.2864</ele>
        <time>2011-02-19T15:32:33Z</time>
      </trkpt>
      <trkpt lat="59.5302099" lon="17.8765266">
        <ele>21.2864</ele>
        <time>2011-02-19T15:32:37Z</time>
      </trkpt>
      <trkpt lat="59.5303235" lon="17.8765806">
        <ele>21.2864</ele>
        <time>2011-02-19T15:32:40Z</time>
      </trkpt>
      <trkpt lat="59.5304684" lon="17.8766618">
        <ele>20.325</ele>
        <time>2011-02-19T15:32:45Z</time>
      </trkpt>
      <trkpt lat="59.5305627" lon="17.8767265">
        <ele>19.8444</ele>
        <time>2011-02-19T15:32:49Z</time>
      </trkpt>
      <trkpt lat="59.5306782" lon="17.876822">
        <ele>19.8444</ele>
        <time>2011-02-19T15:32:54Z</time>
      </trkpt>
      <trkpt lat="59.5307865" lon="17.8768631">
        <ele>19.8444</ele>
        <time>2011-02-19T15:32:58Z</time>
      </trkpt>
      <trkpt lat="59.530916" lon="17.8768875">
        <ele>20.325</ele>
        <time>2011-02-19T15:33:03Z</time>
      </trkpt>
      <trkpt lat="59.5310309" lon="17.8768808">
        <ele>20.8057</ele>
        <time>2011-02-19T15:33:07Z</time>
      </trkpt>
      <trkpt lat="59.5311316" lon="17.8769215">
        <ele>20.8057</ele>
        <time>2011-02-19T15:33:11Z</time>
      </trkpt>
      <trkpt lat="59.5312382" lon="17.8769704">
        <ele>21.767</ele>
        <time>2011-02-19T15:33:15Z</time>
      </trkpt>
      <trkpt lat="59.5313752" lon="17.8769984">
        <ele>22.7283</ele>
        <time>2011-02-19T15:33:19Z</time>
      </trkpt>
      <trkpt lat="59.5315244" lon="17.8769616">
        <ele>23.209</ele>
        <time>2011-02-19T15:33:23Z</time>
      </trkpt>
      <trkpt lat="59.5316926" lon="17.8769533">
        <ele>23.209</ele>
        <time>2011-02-19T15:33:28Z</time>
      </trkpt>
      <trkpt lat="59.5317384" lon="17.8770054">
        <ele>22.7283</ele>
        <time>2011-02-19T15:33:30Z</time>
      </trkpt>
      <trkpt lat="59.5318194" lon="17.8771771">
        <ele>21.767</ele>
        <time>2011-02-19T15:33:35Z</time>
      </trkpt>
      <trkpt lat="59.5319162" lon="17.8773359">
        <ele>21.767</ele>
        <time>2011-02-19T15:33:40Z</time>
      </trkpt>
      <trkpt lat="59.5319953" lon="17.8773822">
        <ele>20.8057</ele>
        <time>2011-02-19T15:33:44Z</time>
      </trkpt>
      <trkpt lat="59.5320251" lon="17.8773745">
        <ele>20.8057</ele>
        <time>2011-02-19T15:33:45Z</time>
      </trkpt>
      <trkpt lat="59.5321824" lon="17.8773266">
        <ele>20.8057</ele>
        <time>2011-02-19T15:33:50Z</time>
      </trkpt>
      <trkpt lat="59.5323575" lon="17.8772805">
        <ele>21.767</ele>
        <time>2011-02-19T15:33:54Z</time>
      </trkpt>
      <trkpt lat="59.5325327" lon="17.8772639">
        <ele>22.7283</ele>
        <time>2011-02-19T15:33:58Z</time>
      </trkpt>
      <trkpt lat="59.532678" lon="17.8772505">
        <ele>22.7283</ele>
        <time>2011-02-19T15:34:02Z</time>
      </trkpt>
      <trkpt lat="59.5328155" lon="17.8772189">
        <ele>22.2476</ele>
        <time>2011-02-19T15:34:06Z</time>
      </trkpt>
      <trkpt lat="59.5329963" lon="17.8771124">
        <ele>22.7283</ele>
        <time>2011-02-19T15:34:12Z</time>
      </trkpt>
      <trkpt lat="59.5330595" lon="17.8769129">
        <ele>23.209</ele>
        <time>2011-02-19T15:34:16Z</time>
      </trkpt>
      <trkpt lat="59.5330668" lon="17.8767025">
        <ele>24.1703</ele>
        <time>2011-02-19T15:34:19Z</time>
      </trkpt>
      <trkpt lat="59.5330709" lon="17.8763264">
        <ele>23.6896</ele>
        <time>2011-02-19T15:34:24Z</time>
      </trkpt>
      <trkpt lat="59.5331248" lon="17.8761346">
        <ele>23.209</ele>
        <time>2011-02-19T15:34:27Z</time>
      </trkpt>
      <trkpt lat="59.5332547" lon="17.8761204">
        <ele>22.2476</ele>
        <time>2011-02-19T15:34:31Z</time>
      </trkpt>
      <trkpt lat="59.5333544" lon="17.8762277">
        <ele>21.2864</ele>
        <time>2011-02-19T15:34:35Z</time>
      </trkpt>
      <trkpt lat="59.5334848" lon="17.876279">
        <ele>20.8057</ele>
        <time>2011-02-19T15:34:39Z</time>
      </trkpt>
      <trkpt lat="59.5335255" lon="17.8762864">
        <ele>20.8057</ele>
        <time>2011-02-19T15:34:40Z</time>
      </trkpt>
      <trkpt lat="59.5336915" lon="17.8763668">
        <ele>20.8057</ele>
        <time>2011-02-19T15:34:45Z</time>
      </trkpt>
      <trkpt lat="59.5338177" lon="17.8764432">
        <ele>21.2864</ele>
        <time>2011-02-19T15:34:49Z</time>
      </trkpt>
      <trkpt lat="59.5339599" lon="17.8764601">
        <ele>21.2864</ele>
        <time>2011-02-19T15:34:53Z</time>
      </trkpt>
      <trkpt lat="59.5341108" lon="17.8764129">
        <ele>23.209</ele>
        <time>2011-02-19T15:34:57Z</time>
      </trkpt>
      <trkpt lat="59.5342227" lon="17.8762747">
        <ele>23.6896</ele>
        <time>2011-02-19T15:35:01Z</time>
      </trkpt>
      <trkpt lat="59.5343146" lon="17.8760481">
        <ele>23.209</ele>
        <time>2011-02-19T15:35:05Z</time>
      </trkpt>
      <trkpt lat="59.5344022" lon="17.8759121">
        <ele>21.767</ele>
        <time>2011-02-19T15:35:08Z</time>
      </trkpt>
      <trkpt lat="59.5344375" lon="17.8758863">
        <ele>21.767</ele>
        <time>2011-02-19T15:35:09Z</time>
      </trkpt>
      <trkpt lat="59.534468" lon="17.8758689">
        <ele>21.767</ele>
        <time>2011-02-19T15:35:10Z</time>
      </trkpt>
      <trkpt lat="59.5345954" lon="17.8759115">
        <ele>21.2864</ele>
        <time>2011-02-19T15:35:16Z</time>
      </trkpt>
      <trkpt lat="59.534683" lon="17.875882">
        <ele>21.767</ele>
        <time>2011-02-19T15:35:19Z</time>
      </trkpt>
      <trkpt lat="59.5347072" lon="17.875857">
        <ele>21.767</ele>
        <time>2011-02-19T15:35:20Z</time>
      </trkpt>
      <trkpt lat="59.5347592" lon="17.8755279">
        <ele>22.2476</ele>
        <time>2011-02-19T15:35:25Z</time>
      </trkpt>
      <trkpt lat="59.5346736" lon="17.8753488">
        <ele>22.2476</ele>
        <time>2011-02-19T15:35:28Z</time>
      </trkpt>
      <trkpt lat="59.5346368" lon="17.8753194">
        <ele>21.767</ele>
        <time>2011-02-19T15:35:29Z</time>
      </trkpt>
      <trkpt lat="59.5344472" lon="17.8752417">
        <ele>21.767</ele>
        <time>2011-02-19T15:35:34Z</time>
      </trkpt>
      <trkpt lat="59.5342873" lon="17.8752138">
        <ele>22.7283</ele>
        <time>2011-02-19T15:35:38Z</time>
      </trkpt>
      <trkpt lat="59.5340918" lon="17.8751564">
        <ele>23.6896</ele>
        <time>2011-02-19T15:35:43Z</time>
      </trkpt>
      <trkpt lat="59.5339716" lon="17.8750496">
        <ele>22.7283</ele>
        <time>2011-02-19T15:35:47Z</time>
      </trkpt>
      <trkpt lat="59.5339427" lon="17.8748927">
        <ele>23.209</ele>
        <time>2011-02-19T15:35:50Z</time>
      </trkpt>
      <trkpt lat="59.5339679" lon="17.8746611">
        <ele>23.209</ele>
        <time>2011-02-19T15:35:54Z</time>
      </trkpt>
      <trkpt lat="59.5339827" lon="17.8744167">
        <ele>23.6896</ele>
        <time>2011-02-19T15:35:58Z</time>
      </trkpt>
      <trkpt lat="59.5339822" lon="17.8741959">
        <ele>23.209</ele>
        <time>2011-02-19T15:36:02Z</time>
      </trkpt>
      <trkpt lat="59.5339663" lon="17.8739804">
        <ele>24.1703</ele>
        <time>2011-02-19T15:36:06Z</time>
      </trkpt>
      <trkpt lat="59.5339464" lon="17.873835">
        <ele>24.651</ele>
        <time>2011-02-19T15:36:09Z</time>
      </trkpt>
      <trkpt lat="59.5339102" lon="17.8736312">
        <ele>25.6123</ele>
        <time>2011-02-19T15:36:13Z</time>
      </trkpt>
      <trkpt lat="59.5338537" lon="17.8734547">
        <ele>26.0929</ele>
        <time>2011-02-19T15:36:17Z</time>
      </trkpt>
      <trkpt lat="59.5337836" lon="17.873306">
        <ele>27.0543</ele>
        <time>2011-02-19T15:36:21Z</time>
      </trkpt>
      <trkpt lat="59.5337657" lon="17.8732759">
        <ele>26.5736</ele>
        <time>2011-02-19T15:36:22Z</time>
      </trkpt>
      <trkpt lat="59.5334371" lon="17.8723858">
        <ele>25.6123</ele>
        <time>2011-02-19T15:39:14Z</time>
      </trkpt>
      <trkpt lat="59.533432" lon="17.8723741">
        <ele>25.6123</ele>
        <time>2011-02-19T15:39:15Z</time>
      </trkpt>
      <trkpt lat="59.533403" lon="17.8723644">
        <ele>25.1317</ele>
        <time>2011-02-19T15:39:22Z</time>
      </trkpt>
      <trkpt lat="59.5334067" lon="17.8723672">
        <ele>24.651</ele>
        <time>2011-02-19T15:39:40Z</time>
      </trkpt>
      <trkpt lat="59.533411" lon="17.8723737">
        <ele>24.1703</ele>
        <time>2011-02-19T15:40:01Z</time>
      </trkpt>
      <trkpt lat="59.5334081" lon="17.8723846">
        <ele>24.1703</ele>
        <time>2011-02-19T15:40:11Z</time>
      </trkpt>
      <trkpt lat="59.5333983" lon="17.8723803">
        <ele>23.209</ele>
        <time>2011-02-19T15:40:26Z</time>
      </trkpt>
      <trkpt lat="59.5333901" lon="17.8723917">
        <ele>24.651</ele>
        <time>2011-02-19T15:40:34Z</time>
      </trkpt>
      <trkpt lat="59.5334004" lon="17.8724078">
        <ele>25.6123</ele>
        <time>2011-02-19T15:40:42Z</time>
      </trkpt>
      <trkpt lat="59.5333958" lon="17.8723903">
        <ele>24.1703</ele>
        <time>2011-02-19T15:41:06Z</time>
      </trkpt>
      <trkpt lat="59.5333978" lon="17.8723886">
        <ele>24.1703</ele>
        <time>2011-02-19T15:41:12Z</time>
      </trkpt>
      <trkpt lat="59.5333931" lon="17.8723554">
        <ele>24.1703</ele>
        <time>2011-02-19T15:41:16Z</time>
      </trkpt>
      <trkpt lat="59.5333753" lon="17.8723011">
        <ele>24.651</ele>
        <time>2011-02-19T15:41:18Z</time>
      </trkpt>
      <trkpt lat="59.5333092" lon="17.872167">
        <ele>24.651</ele>
        <time>2011-02-19T15:41:24Z</time>
      </trkpt>
      <trkpt lat="59.533287" lon="17.8721131">
        <ele>25.1317</ele>
        <time>2011-02-19T15:41:26Z</time>
      </trkpt>
      <trkpt lat="59.5332754" lon="17.8720803">
        <ele>25.1317</ele>
        <time>2011-02-19T15:41:27Z</time>
      </trkpt>
      <trkpt lat="59.5332043" lon="17.8718792">
        <ele>25.6123</ele>
        <time>2011-02-19T15:41:33Z</time>
      </trkpt>
      <trkpt lat="59.5331745" lon="17.8717183">
        <ele>25.1317</ele>
        <time>2011-02-19T15:41:37Z</time>
      </trkpt>
      <trkpt lat="59.5331637" lon="17.8716203">
        <ele>25.1317</ele>
        <time>2011-02-19T15:41:39Z</time>
      </trkpt>
      <trkpt lat="59.5331553" lon="17.8713645">
        <ele>24.1703</ele>
        <time>2011-02-19T15:41:45Z</time>
      </trkpt>
      <trkpt lat="59.5331579" lon="17.8712149">
        <ele>23.6896</ele>
        <time>2011-02-19T15:41:49Z</time>
      </trkpt>
      <trkpt lat="59.5331616" lon="17.8711654">
        <ele>23.6896</ele>
        <time>2011-02-19T15:41:51Z</time>
      </trkpt>
      <trkpt lat="59.5331584" lon="17.8710524">
        <ele>23.6896</ele>
        <time>2011-02-19T15:41:56Z</time>
      </trkpt>
      <trkpt lat="59.5331672" lon="17.8709458">
        <ele>23.6896</ele>
        <time>2011-02-19T15:42:00Z</time>
      </trkpt>
      <trkpt lat="59.5331701" lon="17.8709216">
        <ele>24.1703</ele>
        <time>2011-02-19T15:42:01Z</time>
      </trkpt>
      <trkpt lat="59.5332143" lon="17.8708274">
        <ele>27.0543</ele>
        <time>2011-02-19T15:42:05Z</time>
      </trkpt>
      <trkpt lat="59.5332864" lon="17.8704993">
        <ele>26.5736</ele>
        <time>2011-02-19T15:42:10Z</time>
      </trkpt>
      <trkpt lat="59.5332805" lon="17.8702876">
        <ele>25.6123</ele>
        <time>2011-02-19T15:42:13Z</time>
      </trkpt>
      <trkpt lat="59.5331779" lon="17.869983">
        <ele>25.1317</ele>
        <time>2011-02-19T15:42:18Z</time>
      </trkpt>
      <trkpt lat="59.533086" lon="17.8697342">
        <ele>23.209</ele>
        <time>2011-02-19T15:42:22Z</time>
      </trkpt>
      <trkpt lat="59.5329534" lon="17.8694853">
        <ele>22.7283</ele>
        <time>2011-02-19T15:42:26Z</time>
      </trkpt>
      <trkpt lat="59.5328813" lon="17.8693646">
        <ele>21.2864</ele>
        <time>2011-02-19T15:42:28Z</time>
      </trkpt>
      <trkpt lat="59.5327756" lon="17.8690805">
        <ele>20.8057</ele>
        <time>2011-02-19T15:42:33Z</time>
      </trkpt>
      <trkpt lat="59.5327548" lon="17.8690203">
        <ele>20.8057</ele>
        <time>2011-02-19T15:42:34Z</time>
      </trkpt>
      <trkpt lat="59.5326434" lon="17.8687214">
        <ele>19.8444</ele>
        <time>2011-02-19T15:42:39Z</time>
      </trkpt>
      <trkpt lat="59.5325757" lon="17.8685557">
        <ele>19.3638</ele>
        <time>2011-02-19T15:42:42Z</time>
      </trkpt>
      <trkpt lat="59.5324849" lon="17.8683531">
        <ele>19.3638</ele>
        <time>2011-02-19T15:42:46Z</time>
      </trkpt>
      <trkpt lat="59.5324092" lon="17.8681886">
        <ele>19.3638</ele>
        <time>2011-02-19T15:42:49Z</time>
      </trkpt>
      <trkpt lat="59.5323177" lon="17.8679777">
        <ele>20.325</ele>
        <time>2011-02-19T15:42:53Z</time>
      </trkpt>
      <trkpt lat="59.532226" lon="17.8677415">
        <ele>21.2864</ele>
        <time>2011-02-19T15:42:57Z</time>
      </trkpt>
      <trkpt lat="59.5321284" lon="17.8675101">
        <ele>21.767</ele>
        <time>2011-02-19T15:43:01Z</time>
      </trkpt>
      <trkpt lat="59.532045" lon="17.8673617">
        <ele>22.2476</ele>
        <time>2011-02-19T15:43:04Z</time>
      </trkpt>
      <trkpt lat="59.5319862" lon="17.8672019">
        <ele>21.767</ele>
        <time>2011-02-19T15:43:07Z</time>
      </trkpt>
      <trkpt lat="59.5319459" lon="17.8669479">
        <ele>22.2476</ele>
        <time>2011-02-19T15:43:11Z</time>
      </trkpt>
      <trkpt lat="59.5319195" lon="17.8667811">
        <ele>21.767</ele>
        <time>2011-02-19T15:43:14Z</time>
      </trkpt>
      <trkpt lat="59.5318908" lon="17.8666219">
        <ele>20.8057</ele>
        <time>2011-02-19T15:43:17Z</time>
      </trkpt>
      <trkpt lat="59.5318596" lon="17.8664101">
        <ele>21.2864</ele>
        <time>2011-02-19T15:43:21Z</time>
      </trkpt>
      <trkpt lat="59.5318365" lon="17.8662849">
        <ele>21.2864</ele>
        <time>2011-02-19T15:43:23Z</time>
      </trkpt>
      <trkpt lat="59.5317976" lon="17.8659912">
        <ele>21.2864</ele>
        <time>2011-02-19T15:43:28Z</time>
      </trkpt>
      <trkpt lat="59.5317715" lon="17.8658348">
        <ele>21.2864</ele>
        <time>2011-02-19T15:43:31Z</time>
      </trkpt>
      <trkpt lat="59.5317484" lon="17.8656767">
        <ele>21.767</ele>
        <time>2011-02-19T15:43:34Z</time>
      </trkpt>
      <trkpt lat="59.5317163" lon="17.8654446">
        <ele>21.767</ele>
        <time>2011-02-19T15:43:38Z</time>
      </trkpt>
      <trkpt lat="59.5316921" lon="17.8652763">
        <ele>22.7283</ele>
        <time>2011-02-19T15:43:41Z</time>
      </trkpt>
      <trkpt lat="59.5316878" lon="17.8649965">
        <ele>23.6896</ele>
        <time>2011-02-19T15:43:46Z</time>
      </trkpt>
      <trkpt lat="59.5317254" lon="17.8648474">
        <ele>23.209</ele>
        <time>2011-02-19T15:43:50Z</time>
      </trkpt>
      <trkpt lat="59.5317914" lon="17.8649743">
        <ele>22.7283</ele>
        <time>2011-02-19T15:43:54Z</time>
      </trkpt>
      <trkpt lat="59.5318106" lon="17.8651265">
        <ele>22.2476</ele>
        <time>2011-02-19T15:43:57Z</time>
      </trkpt>
      <trkpt lat="59.5318404" lon="17.8652882">
        <ele>22.2476</ele>
        <time>2011-02-19T15:44:00Z</time>
      </trkpt>
      <trkpt lat="59.5318758" lon="17.8655213">
        <ele>21.767</ele>
        <time>2011-02-19T15:44:04Z</time>
      </trkpt>
      <trkpt lat="59.5319257" lon="17.865799">
        <ele>22.7283</ele>
        <time>2011-02-19T15:44:09Z</time>
      </trkpt>
      <trkpt lat="59.5319686" lon="17.8659863">
        <ele>22.2476</ele>
        <time>2011-02-19T15:44:12Z</time>
      </trkpt>
      <trkpt lat="59.5320171" lon="17.8661782">
        <ele>21.767</ele>
        <time>2011-02-19T15:44:15Z</time>
      </trkpt>
      <trkpt lat="59.5320691" lon="17.8663819">
        <ele>20.325</ele>
        <time>2011-02-19T15:44:18Z</time>
      </trkpt>
      <trkpt lat="59.5321075" lon="17.866677">
        <ele>18.8831</ele>
        <time>2011-02-19T15:44:22Z</time>
      </trkpt>
      <trkpt lat="59.5321343" lon="17.8669218">
        <ele>18.4023</ele>
        <time>2011-02-19T15:44:25Z</time>
      </trkpt>
      <trkpt lat="59.5321892" lon="17.8671577">
        <ele>17.4412</ele>
        <time>2011-02-19T15:44:29Z</time>
      </trkpt>
      <trkpt lat="59.5322598" lon="17.867352">
        <ele>17.4412</ele>
        <time>2011-02-19T15:44:33Z</time>
      </trkpt>
      <trkpt lat="59.5323216" lon="17.8675628">
        <ele>16.9604</ele>
        <time>2011-02-19T15:44:37Z</time>
      </trkpt>
      <trkpt lat="59.5323896" lon="17.8676971">
        <ele>16.4797</ele>
        <time>2011-02-19T15:44:40Z</time>
      </trkpt>
      <trkpt lat="59.5324574" lon="17.8678502">
        <ele>17.4412</ele>
        <time>2011-02-19T15:44:43Z</time>
      </trkpt>
      <trkpt lat="59.5325558" lon="17.8680361">
        <ele>17.9218</ele>
        <time>2011-02-19T15:44:47Z</time>
      </trkpt>
      <trkpt lat="59.5326509" lon="17.8682315">
        <ele>18.4023</ele>
        <time>2011-02-19T15:44:51Z</time>
      </trkpt>
      <trkpt lat="59.5326979" lon="17.8683998">
        <ele>17.9218</ele>
        <time>2011-02-19T15:44:54Z</time>
      </trkpt>
      <trkpt lat="59.532719" lon="17.8684565">
        <ele>17.9218</ele>
        <time>2011-02-19T15:44:55Z</time>
      </trkpt>
      <trkpt lat="59.5327963" lon="17.8686584">
        <ele>16.9604</ele>
        <time>2011-02-19T15:44:59Z</time>
      </trkpt>
      <trkpt lat="59.5328834" lon="17.8688542">
        <ele>16.9604</ele>
        <time>2011-02-19T15:45:03Z</time>
      </trkpt>
      <trkpt lat="59.5329754" lon="17.869049">
        <ele>16.4797</ele>
        <time>2011-02-19T15:45:07Z</time>
      </trkpt>
      <trkpt lat="59.5330531" lon="17.8692557">
        <ele>16.9604</ele>
        <time>2011-02-19T15:45:11Z</time>
      </trkpt>
      <trkpt lat="59.5331123" lon="17.8694142">
        <ele>16.9604</ele>
        <time>2011-02-19T15:45:14Z</time>
      </trkpt>
      <trkpt lat="59.5332185" lon="17.8696319">
        <ele>17.4412</ele>
        <time>2011-02-19T15:45:18Z</time>
      </trkpt>
      <trkpt lat="59.5333224" lon="17.8698633">
        <ele>16.9604</ele>
        <time>2011-02-19T15:45:22Z</time>
      </trkpt>
      <trkpt lat="59.5333931" lon="17.8700078">
        <ele>16.9604</ele>
        <time>2011-02-19T15:45:25Z</time>
      </trkpt>
      <trkpt lat="59.5334286" lon="17.8700696">
        <ele>16.9604</ele>
        <time>2011-02-19T15:45:27Z</time>
      </trkpt>
      <trkpt lat="59.533523" lon="17.8700104">
        <ele>16.9604</ele>
        <time>2011-02-19T15:45:31Z</time>
      </trkpt>
      <trkpt lat="59.5335625" lon="17.8698467">
        <ele>16.9604</ele>
        <time>2011-02-19T15:45:35Z</time>
      </trkpt>
      <trkpt lat="59.533519" lon="17.8695958">
        <ele>16.9604</ele>
        <time>2011-02-19T15:45:40Z</time>
      </trkpt>
      <trkpt lat="59.533479" lon="17.86945">
        <ele>17.4412</ele>
        <time>2011-02-19T15:45:43Z</time>
      </trkpt>
      <trkpt lat="59.5333895" lon="17.8692347">
        <ele>19.3638</ele>
        <time>2011-02-19T15:45:47Z</time>
      </trkpt>
      <trkpt lat="59.5333624" lon="17.8691843">
        <ele>19.8444</ele>
        <time>2011-02-19T15:45:48Z</time>
      </trkpt>
      <trkpt lat="59.5332527" lon="17.8688843">
        <ele>22.2476</ele>
        <time>2011-02-19T15:45:53Z</time>
      </trkpt>
      <trkpt lat="59.5331569" lon="17.8686683">
        <ele>23.209</ele>
        <time>2011-02-19T15:45:57Z</time>
      </trkpt>
      <trkpt lat="59.5330854" lon="17.8684272">
        <ele>24.651</ele>
        <time>2011-02-19T15:46:01Z</time>
      </trkpt>
      <trkpt lat="59.533032" lon="17.8681912">
        <ele>25.6123</ele>
        <time>2011-02-19T15:46:05Z</time>
      </trkpt>
      <trkpt lat="59.5329833" lon="17.8679529">
        <ele>27.5349</ele>
        <time>2011-02-19T15:46:09Z</time>
      </trkpt>
      <trkpt lat="59.5329409" lon="17.8677705">
        <ele>27.5349</ele>
        <time>2011-02-19T15:46:12Z</time>
      </trkpt>
      <trkpt lat="59.5328994" lon="17.867543">
        <ele>27.5349</ele>
        <time>2011-02-19T15:46:16Z</time>
      </trkpt>
      <trkpt lat="59.5328378" lon="17.8673218">
        <ele>27.0543</ele>
        <time>2011-02-19T15:46:20Z</time>
      </trkpt>
      <trkpt lat="59.5327568" lon="17.8670726">
        <ele>25.1317</ele>
        <time>2011-02-19T15:46:24Z</time>
      </trkpt>
      <trkpt lat="59.53267" lon="17.8668163">
        <ele>24.1703</ele>
        <time>2011-02-19T15:46:29Z</time>
      </trkpt>
      <trkpt lat="59.5326197" lon="17.8666616">
        <ele>23.209</ele>
        <time>2011-02-19T15:46:32Z</time>
      </trkpt>
      <trkpt lat="59.5325643" lon="17.8664675">
        <ele>21.767</ele>
        <time>2011-02-19T15:46:36Z</time>
      </trkpt>
      <trkpt lat="59.5325036" lon="17.8662295">
        <ele>22.2476</ele>
        <time>2011-02-19T15:46:41Z</time>
      </trkpt>
      <trkpt lat="59.5324711" lon="17.8660896">
        <ele>22.7283</ele>
        <time>2011-02-19T15:46:44Z</time>
      </trkpt>
      <trkpt lat="59.5324235" lon="17.8658818">
        <ele>24.1703</ele>
        <time>2011-02-19T15:46:48Z</time>
      </trkpt>
      <trkpt lat="59.5323906" lon="17.8657161">
        <ele>24.651</ele>
        <time>2011-02-19T15:46:51Z</time>
      </trkpt>
      <trkpt lat="59.5323429" lon="17.8654851">
        <ele>25.1317</ele>
        <time>2011-02-19T15:46:55Z</time>
      </trkpt>
      <trkpt lat="59.5323151" lon="17.8652557">
        <ele>26.0929</ele>
        <time>2011-02-19T15:46:59Z</time>
      </trkpt>
      <trkpt lat="59.5322942" lon="17.865023">
        <ele>26.5736</ele>
        <time>2011-02-19T15:47:03Z</time>
      </trkpt>
      <trkpt lat="59.5322742" lon="17.8648102">
        <ele>27.0543</ele>
        <time>2011-02-19T15:47:07Z</time>
      </trkpt>
      <trkpt lat="59.5322531" lon="17.8645944">
        <ele>27.5349</ele>
        <time>2011-02-19T15:47:11Z</time>
      </trkpt>
      <trkpt lat="59.5322346" lon="17.8643764">
        <ele>27.5349</ele>
        <time>2011-02-19T15:47:15Z</time>
      </trkpt>
      <trkpt lat="59.5322103" lon="17.8641422">
        <ele>26.5736</ele>
        <time>2011-02-19T15:47:19Z</time>
      </trkpt>
      <trkpt lat="59.5321932" lon="17.8639305">
        <ele>26.5736</ele>
        <time>2011-02-19T15:47:23Z</time>
      </trkpt>
      <trkpt lat="59.5321753" lon="17.8637636">
        <ele>27.0543</ele>
        <time>2011-02-19T15:47:27Z</time>
      </trkpt>
      <trkpt lat="59.5321267" lon="17.8636017">
        <ele>27.0543</ele>
        <time>2011-02-19T15:47:31Z</time>
      </trkpt>
      <trkpt lat="59.5319996" lon="17.8635292">
        <ele>28.0155</ele>
        <time>2011-02-19T15:47:36Z</time>
      </trkpt>
      <trkpt lat="59.5318748" lon="17.863573">
        <ele>27.5349</ele>
        <time>2011-02-19T15:47:40Z</time>
      </trkpt>
      <trkpt lat="59.5317541" lon="17.8636394">
        <ele>27.0543</ele>
        <time>2011-02-19T15:47:44Z</time>
      </trkpt>
      <trkpt lat="59.5316421" lon="17.863746">
        <ele>26.0929</ele>
        <time>2011-02-19T15:47:48Z</time>
      </trkpt>
      <trkpt lat="59.5315459" lon="17.8638809">
        <ele>25.1317</ele>
        <time>2011-02-19T15:47:52Z</time>
      </trkpt>
      <trkpt lat="59.5314521" lon="17.8640414">
        <ele>24.651</ele>
        <time>2011-02-19T15:47:56Z</time>
      </trkpt>
      <trkpt lat="59.5313656" lon="17.8641842">
        <ele>24.1703</ele>
        <time>2011-02-19T15:48:00Z</time>
      </trkpt>
      <trkpt lat="59.5312802" lon="17.8643536">
        <ele>24.1703</ele>
        <time>2011-02-19T15:48:04Z</time>
      </trkpt>
      <trkpt lat="59.5311863" lon="17.8645319">
        <ele>23.209</ele>
        <time>2011-02-19T15:48:09Z</time>
      </trkpt>
      <trkpt lat="59.531122" lon="17.8646666">
        <ele>22.2476</ele>
        <time>2011-02-19T15:48:12Z</time>
      </trkpt>
      <trkpt lat="59.5310789" lon="17.8647386">
        <ele>22.2476</ele>
        <time>2011-02-19T15:48:14Z</time>
      </trkpt>
      <trkpt lat="59.5309935" lon="17.8649451">
        <ele>22.2476</ele>
        <time>2011-02-19T15:48:19Z</time>
      </trkpt>
      <trkpt lat="59.5309539" lon="17.8651152">
        <ele>22.2476</ele>
        <time>2011-02-19T15:48:23Z</time>
      </trkpt>
      <trkpt lat="59.5309543" lon="17.8651754">
        <ele>22.2476</ele>
        <time>2011-02-19T15:48:24Z</time>
      </trkpt>
      <trkpt lat="59.5310218" lon="17.8653883">
        <ele>22.2476</ele>
        <time>2011-02-19T15:48:29Z</time>
      </trkpt>
      <trkpt lat="59.5310429" lon="17.8654103">
        <ele>22.2476</ele>
        <time>2011-02-19T15:48:30Z</time>
      </trkpt>
      <trkpt lat="59.5311775" lon="17.8654265">
        <ele>21.767</ele>
        <time>2011-02-19T15:48:35Z</time>
      </trkpt>
      <trkpt lat="59.5313117" lon="17.8653846">
        <ele>21.767</ele>
        <time>2011-02-19T15:48:39Z</time>
      </trkpt>
      <trkpt lat="59.5313506" lon="17.8653707">
        <ele>21.767</ele>
        <time>2011-02-19T15:48:40Z</time>
      </trkpt>
      <trkpt lat="59.5314609" lon="17.8653274">
        <ele>22.2476</ele>
        <time>2011-02-19T15:48:43Z</time>
      </trkpt>
      <trkpt lat="59.5315654" lon="17.8654072">
        <ele>22.2476</ele>
        <time>2011-02-19T15:48:47Z</time>
      </trkpt>
      <trkpt lat="59.5315781" lon="17.8654545">
        <ele>22.2476</ele>
        <time>2011-02-19T15:48:48Z</time>
      </trkpt>
      <trkpt lat="59.5316329" lon="17.865741">
        <ele>21.767</ele>
        <time>2011-02-19T15:48:53Z</time>
      </trkpt>
      <trkpt lat="59.5316708" lon="17.8659772">
        <ele>21.2864</ele>
        <time>2011-02-19T15:48:57Z</time>
      </trkpt>
      <trkpt lat="59.5317143" lon="17.866233">
        <ele>21.2864</ele>
        <time>2011-02-19T15:49:00Z</time>
      </trkpt>
      <trkpt lat="59.5317246" lon="17.8663253">
        <ele>20.8057</ele>
        <time>2011-02-19T15:49:01Z</time>
      </trkpt>
      <trkpt lat="59.5316494" lon="17.8666339">
        <ele>20.325</ele>
        <time>2011-02-19T15:49:05Z</time>
      </trkpt>
      <trkpt lat="59.5314635" lon="17.8668774">
        <ele>20.325</ele>
        <time>2011-02-19T15:49:11Z</time>
      </trkpt>
      <trkpt lat="59.5313558" lon="17.8670242">
        <ele>20.325</ele>
        <time>2011-02-19T15:49:15Z</time>
      </trkpt>
      <trkpt lat="59.5313345" lon="17.8671278">
        <ele>21.2864</ele>
        <time>2011-02-19T15:49:17Z</time>
      </trkpt>
      <trkpt lat="59.531388" lon="17.8673649">
        <ele>21.767</ele>
        <time>2011-02-19T15:49:22Z</time>
      </trkpt>
      <trkpt lat="59.5315074" lon="17.8675514">
        <ele>21.2864</ele>
        <time>2011-02-19T15:49:27Z</time>
      </trkpt>
      <trkpt lat="59.5316198" lon="17.8676862">
        <ele>21.767</ele>
        <time>2011-02-19T15:49:31Z</time>
      </trkpt>
      <trkpt lat="59.5316951" lon="17.8678414">
        <ele>22.7283</ele>
        <time>2011-02-19T15:49:35Z</time>
      </trkpt>
      <trkpt lat="59.5317739" lon="17.8680095">
        <ele>22.7283</ele>
        <time>2011-02-19T15:49:39Z</time>
      </trkpt>
      <trkpt lat="59.5318133" lon="17.8680996">
        <ele>22.7283</ele>
        <time>2011-02-19T15:49:41Z</time>
      </trkpt>
      <trkpt lat="59.531868" lon="17.8683134">
        <ele>22.2476</ele>
        <time>2011-02-19T15:49:45Z</time>
      </trkpt>
      <trkpt lat="59.5318829" lon="17.8683683">
        <ele>22.2476</ele>
        <time>2011-02-19T15:49:46Z</time>
      </trkpt>
      <trkpt lat="59.5319603" lon="17.8685912">
        <ele>21.767</ele>
        <time>2011-02-19T15:49:50Z</time>
      </trkpt>
      <trkpt lat="59.5320271" lon="17.8688267">
        <ele>21.2864</ele>
        <time>2011-02-19T15:49:54Z</time>
      </trkpt>
      <trkpt lat="59.5321131" lon="17.8691038">
        <ele>21.2864</ele>
        <time>2011-02-19T15:49:59Z</time>
      </trkpt>
      <trkpt lat="59.5321773" lon="17.8692386">
        <ele>21.767</ele>
        <time>2011-02-19T15:50:02Z</time>
      </trkpt>
      <trkpt lat="59.532281" lon="17.8694324">
        <ele>21.2864</ele>
        <time>2011-02-19T15:50:06Z</time>
      </trkpt>
      <trkpt lat="59.532356" lon="17.8695686">
        <ele>21.2864</ele>
        <time>2011-02-19T15:50:09Z</time>
      </trkpt>
      <trkpt lat="59.532457" lon="17.8698025">
        <ele>19.8444</ele>
        <time>2011-02-19T15:50:14Z</time>
      </trkpt>
      <trkpt lat="59.5325373" lon="17.8700751">
        <ele>19.3638</ele>
        <time>2011-02-19T15:50:19Z</time>
      </trkpt>
      <trkpt lat="59.5325984" lon="17.8703056">
        <ele>19.3638</ele>
        <time>2011-02-19T15:50:23Z</time>
      </trkpt>
      <trkpt lat="59.5326708" lon="17.87053">
        <ele>18.8831</ele>
        <time>2011-02-19T15:50:27Z</time>
      </trkpt>
      <trkpt lat="59.5327237" lon="17.8707049">
        <ele>18.4023</ele>
        <time>2011-02-19T15:50:30Z</time>
      </trkpt>
      <trkpt lat="59.5328036" lon="17.8709303">
        <ele>18.4023</ele>
        <time>2011-02-19T15:50:34Z</time>
      </trkpt>
      <trkpt lat="59.5328336" lon="17.8711639">
        <ele>19.8444</ele>
        <time>2011-02-19T15:50:38Z</time>
      </trkpt>
      <trkpt lat="59.5328586" lon="17.8713826">
        <ele>19.8444</ele>
        <time>2011-02-19T15:50:42Z</time>
      </trkpt>
      <trkpt lat="59.5328537" lon="17.871628">
        <ele>20.325</ele>
        <time>2011-02-19T15:50:46Z</time>
      </trkpt>
      <trkpt lat="59.5328528" lon="17.8719493">
        <ele>21.767</ele>
        <time>2011-02-19T15:50:51Z</time>
      </trkpt>
      <trkpt lat="59.5328673" lon="17.8721973">
        <ele>21.767</ele>
        <time>2011-02-19T15:50:55Z</time>
      </trkpt>
      <trkpt lat="59.5329168" lon="17.8724786">
        <ele>22.2476</ele>
        <time>2011-02-19T15:51:00Z</time>
      </trkpt>
      <trkpt lat="59.5329621" lon="17.8726158">
        <ele>23.209</ele>
        <time>2011-02-19T15:51:03Z</time>
      </trkpt>
      <trkpt lat="59.5330713" lon="17.8727217">
        <ele>23.6896</ele>
        <time>2011-02-19T15:51:07Z</time>
      </trkpt>
      <trkpt lat="59.5332216" lon="17.8727472">
        <ele>23.6896</ele>
        <time>2011-02-19T15:51:11Z</time>
      </trkpt>
      <trkpt lat="59.5333522" lon="17.8728863">
        <ele>23.209</ele>
        <time>2011-02-19T15:51:15Z</time>
      </trkpt>
      <trkpt lat="59.5334423" lon="17.8730765">
        <ele>22.2476</ele>
        <time>2011-02-19T15:51:19Z</time>
      </trkpt>
      <trkpt lat="59.5335381" lon="17.8732278">
        <ele>22.2476</ele>
        <time>2011-02-19T15:51:23Z</time>
      </trkpt>
      <trkpt lat="59.5336504" lon="17.8733578">
        <ele>21.2864</ele>
        <time>2011-02-19T15:51:27Z</time>
      </trkpt>
      <trkpt lat="59.5336793" lon="17.8733859">
        <ele>21.2864</ele>
        <time>2011-02-19T15:51:28Z</time>
      </trkpt>
      <trkpt lat="59.5337982" lon="17.8736276">
        <ele>20.8057</ele>
        <time>2011-02-19T15:51:33Z</time>
      </trkpt>
      <trkpt lat="59.5338428" lon="17.8738623">
        <ele>20.8057</ele>
        <time>2011-02-19T15:51:37Z</time>
      </trkpt>
      <trkpt lat="59.5338448" lon="17.8740564">
        <ele>20.8057</ele>
        <time>2011-02-19T15:51:40Z</time>
      </trkpt>
      <trkpt lat="59.5337765" lon="17.8742921">
        <ele>19.8444</ele>
        <time>2011-02-19T15:51:44Z</time>
      </trkpt>
      <trkpt lat="59.5336227" lon="17.8744867">
        <ele>20.325</ele>
        <time>2011-02-19T15:51:49Z</time>
      </trkpt>
      <trkpt lat="59.5335116" lon="17.8746632">
        <ele>20.325</ele>
        <time>2011-02-19T15:51:53Z</time>
      </trkpt>
      <trkpt lat="59.533406" lon="17.8748046">
        <ele>20.8057</ele>
        <time>2011-02-19T15:51:57Z</time>
      </trkpt>
      <trkpt lat="59.5332909" lon="17.8749341">
        <ele>21.2864</ele>
        <time>2011-02-19T15:52:01Z</time>
      </trkpt>
      <trkpt lat="59.5331769" lon="17.8750205">
        <ele>21.767</ele>
        <time>2011-02-19T15:52:05Z</time>
      </trkpt>
      <trkpt lat="59.5330409" lon="17.8751341">
        <ele>23.209</ele>
        <time>2011-02-19T15:52:10Z</time>
      </trkpt>
      <trkpt lat="59.5328688" lon="17.8752507">
        <ele>24.1703</ele>
        <time>2011-02-19T15:52:16Z</time>
      </trkpt>
      <trkpt lat="59.5327874" lon="17.8753003">
        <ele>24.1703</ele>
        <time>2011-02-19T15:52:19Z</time>
      </trkpt>
      <trkpt lat="59.5326538" lon="17.8753563">
        <ele>24.651</ele>
        <time>2011-02-19T15:52:24Z</time>
      </trkpt>
      <trkpt lat="59.5324975" lon="17.8754362">
        <ele>23.6896</ele>
        <time>2011-02-19T15:52:29Z</time>
      </trkpt>
      <trkpt lat="59.5323722" lon="17.8754889">
        <ele>23.209</ele>
        <time>2011-02-19T15:52:34Z</time>
      </trkpt>
      <trkpt lat="59.5322592" lon="17.8755481">
        <ele>23.6896</ele>
        <time>2011-02-19T15:52:38Z</time>
      </trkpt>
      <trkpt lat="59.532109" lon="17.8756483">
        <ele>22.7283</ele>
        <time>2011-02-19T15:52:43Z</time>
      </trkpt>
      <trkpt lat="59.5319991" lon="17.8757106">
        <ele>22.7283</ele>
        <time>2011-02-19T15:52:47Z</time>
      </trkpt>
      <trkpt lat="59.531923" lon="17.8757691">
        <ele>22.2476</ele>
        <time>2011-02-19T15:52:50Z</time>
      </trkpt>
      <trkpt lat="59.5318141" lon="17.8758296">
        <ele>22.7283</ele>
        <time>2011-02-19T15:52:54Z</time>
      </trkpt>
      <trkpt lat="59.5316946" lon="17.8757982">
        <ele>22.7283</ele>
        <time>2011-02-19T15:52:58Z</time>
      </trkpt>
      <trkpt lat="59.5315666" lon="17.8757583">
        <ele>22.2476</ele>
        <time>2011-02-19T15:53:02Z</time>
      </trkpt>
      <trkpt lat="59.5314682" lon="17.8757013">
        <ele>22.2476</ele>
        <time>2011-02-19T15:53:05Z</time>
      </trkpt>
      <trkpt lat="59.5313573" lon="17.8756303">
        <ele>22.2476</ele>
        <time>2011-02-19T15:53:09Z</time>
      </trkpt>
      <trkpt lat="59.5312473" lon="17.875549">
        <ele>23.6896</ele>
        <time>2011-02-19T15:53:13Z</time>
      </trkpt>
      <trkpt lat="59.5311294" lon="17.8755104">
        <ele>25.1317</ele>
        <time>2011-02-19T15:53:17Z</time>
      </trkpt>
      <trkpt lat="59.5310393" lon="17.8754936">
        <ele>25.6123</ele>
        <time>2011-02-19T15:53:20Z</time>
      </trkpt>
      <trkpt lat="59.5309196" lon="17.8754551">
        <ele>26.0929</ele>
        <time>2011-02-19T15:53:24Z</time>
      </trkpt>
      <trkpt lat="59.5308526" lon="17.8753809">
        <ele>25.1317</ele>
        <time>2011-02-19T15:53:27Z</time>
      </trkpt>
      <trkpt lat="59.5307621" lon="17.8753211">
        <ele>24.651</ele>
        <time>2011-02-19T15:53:31Z</time>
      </trkpt>
      <trkpt lat="59.5306699" lon="17.8753729">
        <ele>24.651</ele>
        <time>2011-02-19T15:53:35Z</time>
      </trkpt>
      <trkpt lat="59.5306312" lon="17.8754066">
        <ele>24.651</ele>
        <time>2011-02-19T15:53:37Z</time>
      </trkpt>
      <trkpt lat="59.5304741" lon="17.875541">
        <ele>25.6123</ele>
        <time>2011-02-19T15:53:43Z</time>
      </trkpt>
      <trkpt lat="59.5303511" lon="17.8756006">
        <ele>26.0929</ele>
        <time>2011-02-19T15:53:47Z</time>
      </trkpt>
      <trkpt lat="59.5302239" lon="17.875651">
        <ele>25.1317</ele>
        <time>2011-02-19T15:53:51Z</time>
      </trkpt>
      <trkpt lat="59.5300716" lon="17.8755883">
        <ele>26.0929</ele>
        <time>2011-02-19T15:53:56Z</time>
      </trkpt>
      <trkpt lat="59.5300408" lon="17.8755738">
        <ele>26.0929</ele>
        <time>2011-02-19T15:53:57Z</time>
      </trkpt>
      <trkpt lat="59.5299193" lon="17.8754909">
        <ele>26.0929</ele>
        <time>2011-02-19T15:54:01Z</time>
      </trkpt>
      <trkpt lat="59.5298053" lon="17.8753713">
        <ele>26.5736</ele>
        <time>2011-02-19T15:54:05Z</time>
      </trkpt>
      <trkpt lat="59.5296817" lon="17.875304">
        <ele>26.0929</ele>
        <time>2011-02-19T15:54:09Z</time>
      </trkpt>
      <trkpt lat="59.5295549" lon="17.8751409">
        <ele>25.1317</ele>
        <time>2011-02-19T15:54:14Z</time>
      </trkpt>
      <trkpt lat="59.5295425" lon="17.8750444">
        <ele>24.651</ele>
        <time>2011-02-19T15:54:16Z</time>
      </trkpt>
      <trkpt lat="59.529525" lon="17.8748968">
        <ele>24.1703</ele>
        <time>2011-02-19T15:54:19Z</time>
      </trkpt>
      <trkpt lat="59.529409" lon="17.8747457">
        <ele>24.1703</ele>
        <time>2011-02-19T15:54:24Z</time>
      </trkpt>
      <trkpt lat="59.5293003" lon="17.8747351">
        <ele>25.6123</ele>
        <time>2011-02-19T15:54:28Z</time>
      </trkpt>
      <trkpt lat="59.5291698" lon="17.8748037">
        <ele>25.6123</ele>
        <time>2011-02-19T15:54:32Z</time>
      </trkpt>
      <trkpt lat="59.529134" lon="17.8748346">
        <ele>25.1317</ele>
        <time>2011-02-19T15:54:33Z</time>
      </trkpt>
      <trkpt lat="59.529034" lon="17.8749449">
        <ele>25.1317</ele>
        <time>2011-02-19T15:54:36Z</time>
      </trkpt>
      <trkpt lat="59.5288917" lon="17.875101">
        <ele>25.6123</ele>
        <time>2011-02-19T15:54:41Z</time>
      </trkpt>
      <trkpt lat="59.5287373" lon="17.8753268">
        <ele>25.1317</ele>
        <time>2011-02-19T15:54:46Z</time>
      </trkpt>
      <trkpt lat="59.5286254" lon="17.8755086">
        <ele>25.1317</ele>
        <time>2011-02-19T15:54:50Z</time>
      </trkpt>
      <trkpt lat="59.528559" lon="17.8756359">
        <ele>24.651</ele>
        <time>2011-02-19T15:54:53Z</time>
      </trkpt>
      <trkpt lat="59.5284666" lon="17.8757728">
        <ele>24.651</ele>
        <time>2011-02-19T15:54:57Z</time>
      </trkpt>
      <trkpt lat="59.5283596" lon="17.8757815">
        <ele>23.6896</ele>
        <time>2011-02-19T15:55:01Z</time>
      </trkpt>
      <trkpt lat="59.5282783" lon="17.875654">
        <ele>23.6896</ele>
        <time>2011-02-19T15:55:05Z</time>
      </trkpt>
      <trkpt lat="59.5281892" lon="17.8754972">
        <ele>24.1703</ele>
        <time>2011-02-19T15:55:09Z</time>
      </trkpt>
      <trkpt lat="59.5280805" lon="17.8753116">
        <ele>24.1703</ele>
        <time>2011-02-19T15:55:13Z</time>
      </trkpt>
      <trkpt lat="59.5279453" lon="17.8750844">
        <ele>25.1317</ele>
        <time>2011-02-19T15:55:18Z</time>
      </trkpt>
      <trkpt lat="59.52785" lon="17.8750262">
        <ele>26.0929</ele>
        <time>2011-02-19T15:55:21Z</time>
      </trkpt>
      <trkpt lat="59.5277006" lon="17.8752133">
        <ele>26.5736</ele>
        <time>2011-02-19T15:55:26Z</time>
      </trkpt>
      <trkpt lat="59.5275485" lon="17.8754421">
        <ele>27.0543</ele>
        <time>2011-02-19T15:55:31Z</time>
      </trkpt>
      <trkpt lat="59.5274135" lon="17.8755025">
        <ele>27.5349</ele>
        <time>2011-02-19T15:55:35Z</time>
      </trkpt>
      <trkpt lat="59.5272784" lon="17.8755024">
        <ele>28.0155</ele>
        <time>2011-02-19T15:55:39Z</time>
      </trkpt>
      <trkpt lat="59.527155" lon="17.8754398">
        <ele>27.5349</ele>
        <time>2011-02-19T15:55:43Z</time>
      </trkpt>
      <trkpt lat="59.5270438" lon="17.8753646">
        <ele>28.0155</ele>
        <time>2011-02-19T15:55:47Z</time>
      </trkpt>
      <trkpt lat="59.5269516" lon="17.875247">
        <ele>27.0543</ele>
        <time>2011-02-19T15:55:51Z</time>
      </trkpt>
      <trkpt lat="59.5269205" lon="17.8751862">
        <ele>27.0543</ele>
        <time>2011-02-19T15:55:53Z</time>
      </trkpt>
      <trkpt lat="59.5268942" lon="17.8749972">
        <ele>26.0929</ele>
        <time>2011-02-19T15:55:57Z</time>
      </trkpt>
      <trkpt lat="59.5269418" lon="17.8746782">
        <ele>25.1317</ele>
        <time>2011-02-19T15:56:02Z</time>
      </trkpt>
      <trkpt lat="59.5269454" lon="17.8744485">
        <ele>24.651</ele>
        <time>2011-02-19T15:56:05Z</time>
      </trkpt>
      <trkpt lat="59.5269329" lon="17.8743915">
        <ele>24.651</ele>
        <time>2011-02-19T15:56:06Z</time>
      </trkpt>
      <trkpt lat="59.526815" lon="17.8743203">
        <ele>23.209</ele>
        <time>2011-02-19T15:56:10Z</time>
      </trkpt>
      <trkpt lat="59.526692" lon="17.874502">
        <ele>22.7283</ele>
        <time>2011-02-19T15:56:14Z</time>
      </trkpt>
      <trkpt lat="59.5265735" lon="17.8746668">
        <ele>21.767</ele>
        <time>2011-02-19T15:56:18Z</time>
      </trkpt>
      <trkpt lat="59.5264645" lon="17.8748336">
        <ele>21.767</ele>
        <time>2011-02-19T15:56:22Z</time>
      </trkpt>
      <trkpt lat="59.526331" lon="17.8750387">
        <ele>21.767</ele>
        <time>2011-02-19T15:56:27Z</time>
      </trkpt>
      <trkpt lat="59.5262347" lon="17.8751791">
        <ele>22.2476</ele>
        <time>2011-02-19T15:56:31Z</time>
      </trkpt>
      <trkpt lat="59.5261695" lon="17.8752864">
        <ele>23.209</ele>
        <time>2011-02-19T15:56:34Z</time>
      </trkpt>
      <trkpt lat="59.5260565" lon="17.875388">
        <ele>24.651</ele>
        <time>2011-02-19T15:56:38Z</time>
      </trkpt>
      <trkpt lat="59.5259952" lon="17.8753742">
        <ele>24.651</ele>
        <time>2011-02-19T15:56:40Z</time>
      </trkpt>
      <trkpt lat="59.5258898" lon="17.8751097">
        <ele>24.651</ele>
        <time>2011-02-19T15:56:46Z</time>
      </trkpt>
      <trkpt lat="59.5258881" lon="17.8749337">
        <ele>24.1703</ele>
        <time>2011-02-19T15:56:49Z</time>
      </trkpt>
      <trkpt lat="59.5259083" lon="17.8746842">
        <ele>23.6896</ele>
        <time>2011-02-19T15:56:53Z</time>
      </trkpt>
      <trkpt lat="59.5259228" lon="17.8744464">
        <ele>22.7283</ele>
        <time>2011-02-19T15:56:57Z</time>
      </trkpt>
      <trkpt lat="59.5259247" lon="17.874253">
        <ele>23.209</ele>
        <time>2011-02-19T15:57:01Z</time>
      </trkpt>
      <trkpt lat="59.5258458" lon="17.8740752">
        <ele>24.1703</ele>
        <time>2011-02-19T15:57:06Z</time>
      </trkpt>
      <trkpt lat="59.5257258" lon="17.8739764">
        <ele>24.651</ele>
        <time>2011-02-19T15:57:11Z</time>
      </trkpt>
      <trkpt lat="59.5256188" lon="17.873939">
        <ele>25.6123</ele>
        <time>2011-02-19T15:57:15Z</time>
      </trkpt>
      <trkpt lat="59.525512" lon="17.8739147">
        <ele>25.6123</ele>
        <time>2011-02-19T15:57:19Z</time>
      </trkpt>
      <trkpt lat="59.5253977" lon="17.8739783">
        <ele>26.0929</ele>
        <time>2011-02-19T15:57:23Z</time>
      </trkpt>
      <trkpt lat="59.5253457" lon="17.8740824">
        <ele>26.5736</ele>
        <time>2011-02-19T15:57:26Z</time>
      </trkpt>
      <trkpt lat="59.525343" lon="17.8742916">
        <ele>26.5736</ele>
        <time>2011-02-19T15:57:30Z</time>
      </trkpt>
      <trkpt lat="59.5254221" lon="17.8745009">
        <ele>26.5736</ele>
        <time>2011-02-19T15:57:35Z</time>
      </trkpt>
      <trkpt lat="59.5255234" lon="17.8746373">
        <ele>26.0929</ele>
        <time>2011-02-19T15:57:39Z</time>
      </trkpt>
      <trkpt lat="59.5255788" lon="17.8747091">
        <ele>25.6123</ele>
        <time>2011-02-19T15:57:41Z</time>
      </trkpt>
      <trkpt lat="59.525687" lon="17.8750227">
        <ele>25.1317</ele>
        <time>2011-02-19T15:57:47Z</time>
      </trkpt>
      <trkpt lat="59.5256728" lon="17.8752378">
        <ele>25.1317</ele>
        <time>2011-02-19T15:57:51Z</time>
      </trkpt>
      <trkpt lat="59.5256238" lon="17.8754367">
        <ele>25.1317</ele>
        <time>2011-02-19T15:57:55Z</time>
      </trkpt>
      <trkpt lat="59.5255204" lon="17.8755791">
        <ele>25.1317</ele>
        <time>2011-02-19T15:57:59Z</time>
      </trkpt>
      <trkpt lat="59.525415" lon="17.8756567">
        <ele>26.0929</ele>
        <time>2011-02-19T15:58:03Z</time>
      </trkpt>
      <trkpt lat="59.5253016" lon="17.8757988">
        <ele>27.0543</ele>
        <time>2011-02-19T15:58:08Z</time>
      </trkpt>
      <trkpt lat="59.5252157" lon="17.8759317">
        <ele>28.9769</ele>
        <time>2011-02-19T15:58:12Z</time>
      </trkpt>
      <trkpt lat="59.5251358" lon="17.8760784">
        <ele>29.9381</ele>
        <time>2011-02-19T15:58:16Z</time>
      </trkpt>
      <trkpt lat="59.5250768" lon="17.8761566">
        <ele>29.9381</ele>
        <time>2011-02-19T15:58:19Z</time>
      </trkpt>
      <trkpt lat="59.5250071" lon="17.8762546">
        <ele>30.8995</ele>
        <time>2011-02-19T15:58:24Z</time>
      </trkpt>
    </trkseg>
  </trk>
</gpx>